Aérodrome :
LOGIN :

S'inscrire | Disclaimer

   EN    FR    IT 

 










Légende :    VFR   VFR Marginal   IFR   IFR Intensif   IFR Très Intensif
Visi : 
Plafond : 
>= 8 km
>= 3000ft
5 à 8 km
1000 à 3000 ft
1500m à 5 km
500 à 1000 ft
800 à 1500m
200 à 500 ft
< 800m
< 200 ft
Symboles :   Orages  Brouillard  Fortes neiges  Fortes précipitations  Vent > 20 kt
SIGMETs :   Divers  Orages  Givrage  Turbulence  Onde Orograph.  Cendres Volcan.






- Altitude de l'aérodrome : 23 ft
- Code IATA : XFW


EDHI - Hamburg Finkenwerder

DERNIER METAR :
  • 192250Z AUTO 23008KT 9999 // NCD 03/01 Q1017

METARs EXPIRÉS :
  • 192220Z AUTO 23009KT 9999 // NCD 03/01 Q1017
  • 192150Z AUTO 25012KT 9999 // NCD 04/01 Q1017
  • 192120Z AUTO 25011KT 9999 // SCT047/// 05/01 Q1017
  • 192050Z AUTO 25014KT 9999 // BKN045/// 05/01 Q1017
  • 192020Z AUTO 25012KT 9999 // FEW037/// OVC043/// 05/02 Q1017
  • 191950Z AUTO 26009KT 9999 // OVC044/// 05/02 Q1017

Prévision TAF périmée.



MET'MAP, la Météo Aéronautique d'un coup d'oeil ! - Copyright ORBIFLY Décembre 2007 - Disclaimer

ORBIFLY MET'MAP TEAM :

Programmation & Développement : Alexandra Zaïnal
Sur une idée originale de : Baudouin d'Aumeries
Assistance à la programmation : Marc-Olivier Méhu
Soutien technique & logistique : Manuel Goepfert

Contact : metmap@orbifly.com




SOURCES & CREDITS :

   NOAA